sensor_id;sensor_type;location;lat;lon;timestamp;P1;durP1;ratioP1;P2;durP2;ratioP2
61336;SDS011;47212;41.326;2.104;2023-06-22T00:02:57;17.13;;;5.90;;
61336;SDS011;47212;41.326;2.104;2023-06-22T00:08:06;15.35;;;5.50;;
61336;SDS011;47212;41.326;2.104;2023-06-22T00:13:09;16.88;;;6.60;;
61336;SDS011;47212;41.326;2.104;2023-06-22T00:18:11;16.45;;;5.40;;
61336;SDS011;47212;41.326;2.104;2023-06-22T00:23:15;16.77;;;5.60;;
61336;SDS011;47212;41.326;2.104;2023-06-22T00:28:26;18.55;;;6.50;;
61336;SDS011;47212;41.326;2.104;2023-06-22T00:33:28;14.05;;;6.22;;
61336;SDS011;47212;41.326;2.104;2023-06-22T00:38:30;13.65;;;5.28;;
61336;SDS011;47212;41.326;2.104;2023-06-22T00:43:33;25.20;;;6.45;;
61336;SDS011;47212;41.326;2.104;2023-06-22T00:48:37;15.98;;;6.63;;
61336;SDS011;47212;41.326;2.104;2023-06-22T00:53:55;12.20;;;5.82;;
61336;SDS011;47212;41.326;2.104;2023-06-22T00:59:01;13.30;;;6.18;;
61336;SDS011;47212;41.326;2.104;2023-06-22T01:05:16;22.85;;;6.57;;
61336;SDS011;47212;41.326;2.104;2023-06-22T01:10:22;20.13;;;6.97;;
61336;SDS011;47212;41.326;2.104;2023-06-22T01:15:44;13.73;;;5.25;;
61336;SDS011;47212;41.326;2.104;2023-06-22T01:20:52;15.43;;;6.20;;
61336;SDS011;47212;41.326;2.104;2023-06-22T01:26:16;20.73;;;6.93;;
61336;SDS011;47212;41.326;2.104;2023-06-22T01:31:49;23.60;;;6.72;;
61336;SDS011;47212;41.326;2.104;2023-06-22T01:37:03;16.83;;;6.43;;
61336;SDS011;47212;41.326;2.104;2023-06-22T01:42:06;21.02;;;7.07;;
61336;SDS011;47212;41.326;2.104;2023-06-22T01:47:10;20.83;;;6.57;;
61336;SDS011;47212;41.326;2.104;2023-06-22T01:52:26;16.92;;;7.10;;
61336;SDS011;47212;41.326;2.104;2023-06-22T01:57:30;13.75;;;5.75;;
61336;SDS011;47212;41.326;2.104;2023-06-22T02:02:37;20.23;;;7.00;;
61336;SDS011;47212;41.326;2.104;2023-06-22T02:08:00;16.80;;;6.03;;
61336;SDS011;47212;41.326;2.104;2023-06-22T02:13:11;14.20;;;6.28;;
61336;SDS011;47212;41.326;2.104;2023-06-22T02:18:16;15.10;;;6.47;;
61336;SDS011;47212;41.326;2.104;2023-06-22T02:23:49;23.48;;;7.40;;
61336;SDS011;47212;41.326;2.104;2023-06-22T02:28:56;15.80;;;6.22;;
61336;SDS011;47212;41.326;2.104;2023-06-22T02:34:00;12.48;;;5.47;;
61336;SDS011;47212;41.326;2.104;2023-06-22T02:39:02;19.40;;;6.38;;
61336;SDS011;47212;41.326;2.104;2023-06-22T02:44:05;19.15;;;7.47;;
61336;SDS011;47212;41.326;2.104;2023-06-22T02:49:08;9.02;;;5.03;;
61336;SDS011;47212;41.326;2.104;2023-06-22T02:54:12;8.43;;;4.65;;
61336;SDS011;47212;41.326;2.104;2023-06-22T02:59:15;16.33;;;6.07;;
61336;SDS011;47212;41.326;2.104;2023-06-22T03:04:21;16.60;;;6.13;;
61336;SDS011;47212;41.326;2.104;2023-06-22T03:09:23;13.30;;;5.35;;
61336;SDS011;47212;41.326;2.104;2023-06-22T03:14:26;17.30;;;5.60;;
61336;SDS011;47212;41.326;2.104;2023-06-22T03:19:30;16.23;;;5.85;;
61336;SDS011;47212;41.326;2.104;2023-06-22T03:24:33;11.88;;;5.28;;
61336;SDS011;47212;41.326;2.104;2023-06-22T03:29:39;20.17;;;6.32;;
61336;SDS011;47212;41.326;2.104;2023-06-22T03:34:48;13.30;;;5.85;;
61336;SDS011;47212;41.326;2.104;2023-06-22T03:39:56;7.80;;;4.03;;
61336;SDS011;47212;41.326;2.104;2023-06-22T03:45:05;8.23;;;4.35;;
61336;SDS011;47212;41.326;2.104;2023-06-22T03:50:12;13.00;;;5.50;;
61336;SDS011;47212;41.326;2.104;2023-06-22T03:55:24;9.48;;;4.50;;
61336;SDS011;47212;41.326;2.104;2023-06-22T04:06:13;9.88;;;4.43;;
61336;SDS011;47212;41.326;2.104;2023-06-22T04:11:15;11.80;;;5.28;;
61336;SDS011;47212;41.326;2.104;2023-06-22T04:16:22;15.23;;;5.63;;
61336;SDS011;47212;41.326;2.104;2023-06-22T04:36:09;13.70;;;5.22;;
61336;SDS011;47212;41.326;2.104;2023-06-22T04:41:15;12.55;;;5.60;;
61336;SDS011;47212;41.326;2.104;2023-06-22T04:46:32;11.50;;;4.75;;
61336;SDS011;47212;41.326;2.104;2023-06-22T04:51:37;8.32;;;4.13;;
61336;SDS011;47212;41.326;2.104;2023-06-22T04:56:43;7.45;;;3.70;;
61336;SDS011;47212;41.326;2.104;2023-06-22T05:01:48;12.90;;;5.15;;
61336;SDS011;47212;41.326;2.104;2023-06-22T05:06:50;10.00;;;4.50;;
61336;SDS011;47212;41.326;2.104;2023-06-22T05:12:02;9.25;;;3.75;;
61336;SDS011;47212;41.326;2.104;2023-06-22T05:17:04;6.30;;;3.80;;
61336;SDS011;47212;41.326;2.104;2023-06-22T05:22:17;9.00;;;4.20;;
61336;SDS011;47212;41.326;2.104;2023-06-22T05:27:19;7.03;;;3.53;;
61336;SDS011;47212;41.326;2.104;2023-06-22T05:32:21;10.82;;;4.03;;
61336;SDS011;47212;41.326;2.104;2023-06-22T05:37:26;8.85;;;3.90;;
61336;SDS011;47212;41.326;2.104;2023-06-22T05:42:31;9.90;;;4.57;;
61336;SDS011;47212;41.326;2.104;2023-06-22T05:47:33;6.07;;;3.20;;
61336;SDS011;47212;41.326;2.104;2023-06-22T05:52:36;5.32;;;2.95;;
61336;SDS011;47212;41.326;2.104;2023-06-22T05:57:38;8.02;;;3.58;;
61336;SDS011;47212;41.326;2.104;2023-06-22T06:02:44;5.97;;;3.00;;
61336;SDS011;47212;41.326;2.104;2023-06-22T06:07:48;8.43;;;3.20;;
61336;SDS011;47212;41.326;2.104;2023-06-22T06:12:54;6.13;;;3.25;;
61336;SDS011;47212;41.326;2.104;2023-06-22T06:17:56;10.25;;;3.47;;
61336;SDS011;47212;41.326;2.104;2023-06-22T06:22:58;8.98;;;3.65;;
61336;SDS011;47212;41.326;2.104;2023-06-22T06:28:01;6.60;;;3.28;;
61336;SDS011;47212;41.326;2.104;2023-06-22T06:33:03;12.93;;;4.00;;
61336;SDS011;47212;41.326;2.104;2023-06-22T06:38:33;3.55;;;2.50;;
61336;SDS011;47212;41.326;2.104;2023-06-22T06:43:35;7.45;;;3.45;;
61336;SDS011;47212;41.326;2.104;2023-06-22T06:48:37;7.15;;;3.42;;
61336;SDS011;47212;41.326;2.104;2023-06-22T06:53:44;6.25;;;2.90;;
61336;SDS011;47212;41.326;2.104;2023-06-22T06:58:46;8.50;;;2.72;;
61336;SDS011;47212;41.326;2.104;2023-06-22T07:03:48;5.70;;;3.00;;
61336;SDS011;47212;41.326;2.104;2023-06-22T07:08:52;4.38;;;2.53;;
61336;SDS011;47212;41.326;2.104;2023-06-22T07:13:54;6.90;;;3.25;;
61336;SDS011;47212;41.326;2.104;2023-06-22T07:18:56;6.88;;;3.42;;
61336;SDS011;47212;41.326;2.104;2023-06-22T07:23:58;7.50;;;2.75;;
61336;SDS011;47212;41.326;2.104;2023-06-22T07:29:00;4.70;;;2.90;;
61336;SDS011;47212;41.326;2.104;2023-06-22T07:34:02;6.03;;;3.00;;
61336;SDS011;47212;41.326;2.104;2023-06-22T07:39:06;7.45;;;3.20;;
61336;SDS011;47212;41.326;2.104;2023-06-22T07:44:08;7.88;;;3.17;;
61336;SDS011;47212;41.326;2.104;2023-06-22T07:49:10;5.18;;;2.58;;
61336;SDS011;47212;41.326;2.104;2023-06-22T07:54:13;9.60;;;3.35;;
61336;SDS011;47212;41.326;2.104;2023-06-22T07:59:23;11.07;;;3.42;;
61336;SDS011;47212;41.326;2.104;2023-06-22T08:04:25;9.93;;;3.10;;
61336;SDS011;47212;41.326;2.104;2023-06-22T08:09:29;7.35;;;2.90;;
61336;SDS011;47212;41.326;2.104;2023-06-22T08:14:32;4.03;;;2.42;;
61336;SDS011;47212;41.326;2.104;2023-06-22T08:19:40;8.73;;;3.10;;
61336;SDS011;47212;41.326;2.104;2023-06-22T08:24:42;5.85;;;2.72;;
61336;SDS011;47212;41.326;2.104;2023-06-22T08:29:45;9.50;;;3.00;;
61336;SDS011;47212;41.326;2.104;2023-06-22T08:34:47;5.25;;;2.65;;
61336;SDS011;47212;41.326;2.104;2023-06-22T08:39:49;6.15;;;2.70;;
61336;SDS011;47212;41.326;2.104;2023-06-22T08:44:52;8.95;;;3.08;;
61336;SDS011;47212;41.326;2.104;2023-06-22T08:49:54;5.82;;;2.70;;
61336;SDS011;47212;41.326;2.104;2023-06-22T08:54:56;12.55;;;2.97;;
61336;SDS011;47212;41.326;2.104;2023-06-22T09:00:00;8.85;;;3.20;;
61336;SDS011;47212;41.326;2.104;2023-06-22T09:05:07;6.72;;;2.53;;
61336;SDS011;47212;41.326;2.104;2023-06-22T09:10:09;5.57;;;2.85;;
61336;SDS011;47212;41.326;2.104;2023-06-22T09:15:14;5.03;;;2.95;;
61336;SDS011;47212;41.326;2.104;2023-06-22T09:20:24;8.48;;;2.97;;
61336;SDS011;47212;41.326;2.104;2023-06-22T09:30:54;9.00;;;3.05;;
61336;SDS011;47212;41.326;2.104;2023-06-22T09:36:00;3.40;;;2.38;;
61336;SDS011;47212;41.326;2.104;2023-06-22T09:41:03;6.82;;;3.00;;
61336;SDS011;47212;41.326;2.104;2023-06-22T09:46:05;6.80;;;2.67;;
61336;SDS011;47212;41.326;2.104;2023-06-22T09:51:09;13.70;;;3.03;;
61336;SDS011;47212;41.326;2.104;2023-06-22T09:56:12;7.07;;;2.88;;
61336;SDS011;47212;41.326;2.104;2023-06-22T10:01:16;7.63;;;2.85;;
61336;SDS011;47212;41.326;2.104;2023-06-22T10:06:19;4.35;;;2.70;;
61336;SDS011;47212;41.326;2.104;2023-06-22T10:11:22;6.93;;;2.78;;
61336;SDS011;47212;41.326;2.104;2023-06-22T10:16:32;8.50;;;2.80;;
61336;SDS011;47212;41.326;2.104;2023-06-22T10:21:35;4.50;;;2.55;;
61336;SDS011;47212;41.326;2.104;2023-06-22T10:26:37;5.32;;;2.90;;
61336;SDS011;47212;41.326;2.104;2023-06-22T10:31:39;7.40;;;2.60;;
61336;SDS011;47212;41.326;2.104;2023-06-22T10:36:41;5.32;;;2.95;;
61336;SDS011;47212;41.326;2.104;2023-06-22T10:41:46;4.55;;;2.50;;
61336;SDS011;47212;41.326;2.104;2023-06-22T10:46:49;5.15;;;2.60;;
61336;SDS011;47212;41.326;2.104;2023-06-22T10:51:51;9.43;;;3.35;;
61336;SDS011;47212;41.326;2.104;2023-06-22T10:56:53;5.70;;;2.92;;
61336;SDS011;47212;41.326;2.104;2023-06-22T11:01:56;7.43;;;3.22;;
61336;SDS011;47212;41.326;2.104;2023-06-22T11:07:01;6.63;;;3.10;;
61336;SDS011;47212;41.326;2.104;2023-06-22T11:12:04;7.55;;;3.38;;
61336;SDS011;47212;41.326;2.104;2023-06-22T11:17:07;7.22;;;3.22;;
61336;SDS011;47212;41.326;2.104;2023-06-22T11:22:09;8.30;;;3.40;;
61336;SDS011;47212;41.326;2.104;2023-06-22T11:27:11;7.75;;;3.35;;
61336;SDS011;47212;41.326;2.104;2023-06-22T11:32:16;7.20;;;3.17;;
61336;SDS011;47212;41.326;2.104;2023-06-22T11:37:21;6.85;;;3.22;;
61336;SDS011;47212;41.326;2.104;2023-06-22T11:42:23;7.45;;;3.13;;
61336;SDS011;47212;41.326;2.104;2023-06-22T11:47:26;5.45;;;3.20;;
61336;SDS011;47212;41.326;2.104;2023-06-22T11:52:28;6.88;;;3.38;;
61336;SDS011;47212;41.326;2.104;2023-06-22T11:57:32;5.35;;;3.13;;
61336;SDS011;47212;41.326;2.104;2023-06-22T12:02:36;7.25;;;3.15;;
61336;SDS011;47212;41.326;2.104;2023-06-22T12:07:39;4.85;;;3.10;;
61336;SDS011;47212;41.326;2.104;2023-06-22T12:12:41;8.45;;;3.20;;
61336;SDS011;47212;41.326;2.104;2023-06-22T12:17:43;5.97;;;3.20;;
61336;SDS011;47212;41.326;2.104;2023-06-22T12:22:50;8.50;;;3.35;;
61336;SDS011;47212;41.326;2.104;2023-06-22T12:27:57;6.38;;;3.42;;
61336;SDS011;47212;41.326;2.104;2023-06-22T12:32:59;4.78;;;3.20;;
61336;SDS011;47212;41.326;2.104;2023-06-22T12:38:02;5.13;;;3.15;;
61336;SDS011;47212;41.326;2.104;2023-06-22T12:43:06;6.40;;;4.82;;
61336;SDS011;47212;41.326;2.104;2023-06-22T12:48:10;4.82;;;3.65;;
61336;SDS011;47212;41.326;2.104;2023-06-22T12:53:14;6.82;;;3.40;;
61336;SDS011;47212;41.326;2.104;2023-06-22T12:58:16;5.68;;;3.28;;
61336;SDS011;47212;41.326;2.104;2023-06-22T13:03:18;5.65;;;3.20;;
61336;SDS011;47212;41.326;2.104;2023-06-22T13:08:21;8.40;;;3.42;;
61336;SDS011;47212;41.326;2.104;2023-06-22T13:13:36;4.72;;;3.10;;
61336;SDS011;47212;41.326;2.104;2023-06-22T13:18:39;9.52;;;3.40;;
61336;SDS011;47212;41.326;2.104;2023-06-22T13:23:41;4.50;;;3.00;;
61336;SDS011;47212;41.326;2.104;2023-06-22T13:28:43;5.88;;;3.42;;
61336;SDS011;47212;41.326;2.104;2023-06-22T13:33:45;5.63;;;2.97;;
61336;SDS011;47212;41.326;2.104;2023-06-22T13:38:49;6.07;;;3.25;;
61336;SDS011;47212;41.326;2.104;2023-06-22T13:43:52;6.30;;;2.95;;
61336;SDS011;47212;41.326;2.104;2023-06-22T13:48:54;6.63;;;2.83;;
61336;SDS011;47212;41.326;2.104;2023-06-22T13:53:58;4.30;;;2.63;;
61336;SDS011;47212;41.326;2.104;2023-06-22T13:59:00;4.55;;;2.88;;
61336;SDS011;47212;41.326;2.104;2023-06-22T14:04:11;5.13;;;2.90;;
61336;SDS011;47212;41.326;2.104;2023-06-22T14:09:13;25.67;;;20.35;;
61336;SDS011;47212;41.326;2.104;2023-06-22T14:14:15;6.65;;;5.18;;
61336;SDS011;47212;41.326;2.104;2023-06-22T14:19:20;8.30;;;3.17;;
61336;SDS011;47212;41.326;2.104;2023-06-22T14:24:22;4.25;;;2.88;;
61336;SDS011;47212;41.326;2.104;2023-06-22T14:29:28;5.88;;;2.50;;
61336;SDS011;47212;41.326;2.104;2023-06-22T14:34:30;8.82;;;3.08;;
61336;SDS011;47212;41.326;2.104;2023-06-22T14:39:32;3.97;;;2.58;;
61336;SDS011;47212;41.326;2.104;2023-06-22T14:44:34;6.60;;;3.08;;
61336;SDS011;47212;41.326;2.104;2023-06-22T14:49:37;4.40;;;2.53;;
61336;SDS011;47212;41.326;2.104;2023-06-22T14:54:39;3.50;;;2.80;;
61336;SDS011;47212;41.326;2.104;2023-06-22T14:59:41;4.40;;;2.75;;
61336;SDS011;47212;41.326;2.104;2023-06-22T15:04:44;7.07;;;2.72;;
61336;SDS011;47212;41.326;2.104;2023-06-22T15:09:47;5.90;;;2.88;;
61336;SDS011;47212;41.326;2.104;2023-06-22T15:14:49;4.32;;;2.35;;
61336;SDS011;47212;41.326;2.104;2023-06-22T15:19:51;6.95;;;2.60;;
61336;SDS011;47212;41.326;2.104;2023-06-22T15:24:53;5.13;;;2.72;;
61336;SDS011;47212;41.326;2.104;2023-06-22T15:29:56;5.55;;;2.63;;
61336;SDS011;47212;41.326;2.104;2023-06-22T15:34:58;7.18;;;2.70;;
61336;SDS011;47212;41.326;2.104;2023-06-22T15:40:01;8.30;;;3.00;;
61336;SDS011;47212;41.326;2.104;2023-06-22T15:45:04;6.85;;;3.20;;
61336;SDS011;47212;41.326;2.104;2023-06-22T15:50:06;5.45;;;2.90;;
61336;SDS011;47212;41.326;2.104;2023-06-22T15:55:09;4.47;;;3.10;;
61336;SDS011;47212;41.326;2.104;2023-06-22T16:00:12;6.55;;;3.20;;
61336;SDS011;47212;41.326;2.104;2023-06-22T16:05:19;5.03;;;2.80;;
61336;SDS011;47212;41.326;2.104;2023-06-22T16:10:24;4.82;;;2.85;;
61336;SDS011;47212;41.326;2.104;2023-06-22T16:15:26;4.65;;;2.80;;
61336;SDS011;47212;41.326;2.104;2023-06-22T16:20:29;6.65;;;2.55;;
61336;SDS011;47212;41.326;2.104;2023-06-22T16:25:37;7.68;;;2.80;;
61336;SDS011;47212;41.326;2.104;2023-06-22T16:30:39;7.10;;;3.05;;
61336;SDS011;47212;41.326;2.104;2023-06-22T16:35:43;5.95;;;2.97;;
61336;SDS011;47212;41.326;2.104;2023-06-22T16:40:45;6.78;;;2.80;;
61336;SDS011;47212;41.326;2.104;2023-06-22T16:45:48;4.30;;;2.63;;
61336;SDS011;47212;41.326;2.104;2023-06-22T16:50:50;8.82;;;2.88;;
61336;SDS011;47212;41.326;2.104;2023-06-22T16:55:52;6.60;;;2.85;;
61336;SDS011;47212;41.326;2.104;2023-06-22T17:00:55;11.20;;;2.83;;
61336;SDS011;47212;41.326;2.104;2023-06-22T17:05:58;3.80;;;2.47;;
61336;SDS011;47212;41.326;2.104;2023-06-22T17:11:03;6.05;;;2.97;;
61336;SDS011;47212;41.326;2.104;2023-06-22T17:16:05;7.43;;;2.70;;
61336;SDS011;47212;41.326;2.104;2023-06-22T17:21:21;6.00;;;2.50;;
61336;SDS011;47212;41.326;2.104;2023-06-22T17:26:24;10.52;;;2.88;;
61336;SDS011;47212;41.326;2.104;2023-06-22T17:31:35;5.50;;;3.00;;
61336;SDS011;47212;41.326;2.104;2023-06-22T17:36:50;6.57;;;3.00;;
61336;SDS011;47212;41.326;2.104;2023-06-22T17:41:58;7.22;;;2.78;;
61336;SDS011;47212;41.326;2.104;2023-06-22T17:47:00;6.57;;;3.30;;
61336;SDS011;47212;41.326;2.104;2023-06-22T17:52:05;5.40;;;3.05;;
61336;SDS011;47212;41.326;2.104;2023-06-22T17:57:17;9.43;;;3.28;;
61336;SDS011;47212;41.326;2.104;2023-06-22T18:02:21;6.10;;;3.33;;
61336;SDS011;47212;41.326;2.104;2023-06-22T18:07:29;5.85;;;3.38;;
61336;SDS011;47212;41.326;2.104;2023-06-22T18:17:45;6.40;;;3.10;;
61336;SDS011;47212;41.326;2.104;2023-06-22T18:22:48;7.90;;;3.60;;
61336;SDS011;47212;41.326;2.104;2023-06-22T18:27:50;5.60;;;3.00;;
61336;SDS011;47212;41.326;2.104;2023-06-22T18:32:53;9.02;;;3.58;;
61336;SDS011;47212;41.326;2.104;2023-06-22T18:37:56;5.93;;;3.58;;
61336;SDS011;47212;41.326;2.104;2023-06-22T18:42:59;8.40;;;3.67;;
61336;SDS011;47212;41.326;2.104;2023-06-22T18:48:05;6.32;;;3.00;;
61336;SDS011;47212;41.326;2.104;2023-06-22T18:53:24;6.57;;;3.25;;
61336;SDS011;47212;41.326;2.104;2023-06-22T18:58:28;8.68;;;3.40;;
61336;SDS011;47212;41.326;2.104;2023-06-22T19:03:31;6.55;;;3.45;;
61336;SDS011;47212;41.326;2.104;2023-06-22T19:14:19;5.82;;;3.40;;
61336;SDS011;47212;41.326;2.104;2023-06-22T19:19:25;8.07;;;3.13;;
61336;SDS011;47212;41.326;2.104;2023-06-22T19:24:31;8.88;;;4.72;;
61336;SDS011;47212;41.326;2.104;2023-06-22T19:29:56;6.97;;;4.03;;
61336;SDS011;47212;41.326;2.104;2023-06-22T19:34:58;9.27;;;3.50;;
61336;SDS011;47212;41.326;2.104;2023-06-22T19:40:01;9.35;;;3.75;;
61336;SDS011;47212;41.326;2.104;2023-06-22T19:45:08;6.97;;;3.45;;
61336;SDS011;47212;41.326;2.104;2023-06-22T19:50:14;7.45;;;3.17;;
61336;SDS011;47212;41.326;2.104;2023-06-22T19:55:21;6.97;;;3.50;;
61336;SDS011;47212;41.326;2.104;2023-06-22T20:00:23;7.65;;;3.67;;
61336;SDS011;47212;41.326;2.104;2023-06-22T20:05:26;8.32;;;3.80;;
61336;SDS011;47212;41.326;2.104;2023-06-22T20:10:28;14.52;;;4.43;;
61336;SDS011;47212;41.326;2.104;2023-06-22T20:15:32;6.32;;;3.53;;
61336;SDS011;47212;41.326;2.104;2023-06-22T20:20:45;9.27;;;4.38;;
61336;SDS011;47212;41.326;2.104;2023-06-22T20:25:49;7.10;;;3.63;;
61336;SDS011;47212;41.326;2.104;2023-06-22T20:31:04;10.23;;;4.07;;
61336;SDS011;47212;41.326;2.104;2023-06-22T20:36:08;6.90;;;4.55;;
61336;SDS011;47212;41.326;2.104;2023-06-22T20:41:11;9.48;;;4.65;;
61336;SDS011;47212;41.326;2.104;2023-06-22T20:46:14;10.38;;;6.95;;
61336;SDS011;47212;41.326;2.104;2023-06-22T20:51:16;12.98;;;5.20;;
61336;SDS011;47212;41.326;2.104;2023-06-22T20:56:21;10.07;;;4.43;;
61336;SDS011;47212;41.326;2.104;2023-06-22T21:01:25;8.70;;;3.95;;
61336;SDS011;47212;41.326;2.104;2023-06-22T21:06:38;7.38;;;4.03;;
61336;SDS011;47212;41.326;2.104;2023-06-22T21:11:41;11.05;;;4.20;;
61336;SDS011;47212;41.326;2.104;2023-06-22T21:16:43;7.82;;;4.20;;
61336;SDS011;47212;41.326;2.104;2023-06-22T21:21:45;6.97;;;3.92;;
61336;SDS011;47212;41.326;2.104;2023-06-22T21:26:50;9.10;;;4.20;;
61336;SDS011;47212;41.326;2.104;2023-06-22T21:31:52;7.50;;;4.15;;
61336;SDS011;47212;41.326;2.104;2023-06-22T21:36:55;13.85;;;4.80;;
61336;SDS011;47212;41.326;2.104;2023-06-22T21:41:57;9.10;;;4.53;;
61336;SDS011;47212;41.326;2.104;2023-06-22T21:46:59;8.40;;;4.20;;
61336;SDS011;47212;41.326;2.104;2023-06-22T21:52:02;10.70;;;4.95;;
61336;SDS011;47212;41.326;2.104;2023-06-22T21:57:04;10.93;;;4.65;;
61336;SDS011;47212;41.326;2.104;2023-06-22T22:02:06;8.95;;;4.47;;
61336;SDS011;47212;41.326;2.104;2023-06-22T22:07:09;7.68;;;4.45;;
61336;SDS011;47212;41.326;2.104;2023-06-22T22:12:12;15.98;;;4.40;;
61336;SDS011;47212;41.326;2.104;2023-06-22T22:17:17;7.40;;;3.83;;
61336;SDS011;47212;41.326;2.104;2023-06-22T22:22:20;11.13;;;4.40;;
61336;SDS011;47212;41.326;2.104;2023-06-22T22:27:22;8.80;;;5.28;;
61336;SDS011;47212;41.326;2.104;2023-06-22T22:32:25;8.38;;;4.70;;
61336;SDS011;47212;41.326;2.104;2023-06-22T22:37:27;10.43;;;4.10;;
61336;SDS011;47212;41.326;2.104;2023-06-22T22:42:29;6.53;;;4.03;;
61336;SDS011;47212;41.326;2.104;2023-06-22T22:47:32;11.82;;;4.53;;
61336;SDS011;47212;41.326;2.104;2023-06-22T22:52:35;5.15;;;2.72;;
61336;SDS011;47212;41.326;2.104;2023-06-22T22:57:37;11.30;;;4.20;;
61336;SDS011;47212;41.326;2.104;2023-06-22T23:02:39;11.73;;;4.07;;
61336;SDS011;47212;41.326;2.104;2023-06-22T23:07:44;11.80;;;4.60;;
61336;SDS011;47212;41.326;2.104;2023-06-22T23:12:47;8.80;;;4.05;;
61336;SDS011;47212;41.326;2.104;2023-06-22T23:17:49;9.93;;;3.85;;
61336;SDS011;47212;41.326;2.104;2023-06-22T23:22:53;4.78;;;3.05;;
61336;SDS011;47212;41.326;2.104;2023-06-22T23:28:02;6.28;;;3.30;;
61336;SDS011;47212;41.326;2.104;2023-06-22T23:33:07;8.55;;;4.10;;
61336;SDS011;47212;41.326;2.104;2023-06-22T23:38:10;6.88;;;3.83;;
61336;SDS011;47212;41.326;2.104;2023-06-22T23:43:13;8.35;;;4.18;;
61336;SDS011;47212;41.326;2.104;2023-06-22T23:48:15;10.98;;;4.00;;
61336;SDS011;47212;41.326;2.104;2023-06-22T23:53:17;5.75;;;3.30;;
61336;SDS011;47212;41.326;2.104;2023-06-22T23:58:21;9.27;;;4.03;;
